KCDN/CDN METAR and TAF weather

Enter ICAO airport designator
Station Type Date Time Source
KCDN METAR 2020/07/12 05:55 UTC NOAA

KCDN 120555Z AUTO 00000KT 10SM CLR 24/22 A2988 RMK AO2


Station Type Date Time Source
KCDN Decoded METAR 2020/07/12 05:55 UTC NOAA

Station name not available
Jul 12, 2020 - 01:55 AM EDT / 2020.07.12 0555 UTC
Wind: Calm:0
Visibility: 10 mile(s):0
Sky conditions: clear
Temperature: 75 F (24 C)
Dew Point: 71 F (22 C)
Relative Humidity: 88%
Pressure (altimeter): 29.88 in. Hg (1011 hPa)
ob: KCDN 120555Z AUTO 00000KT 10SM CLR 24/22 A2988 RMK AO2
cycle: 6

Station Type Date Time Source
KCDN TAF UTC NOAA

Error!

Example: see airport list